createdAt,value
2018-02-08T00:00:15.517Z,0
2018-02-08T00:01:17.157Z,0
2018-02-08T00:02:18.820Z,0
2018-02-08T00:03:20.471Z,0
2018-02-08T00:04:22.116Z,0
2018-02-08T00:05:23.767Z,0
2018-02-08T00:06:25.420Z,0
2018-02-08T00:07:27.078Z,0
2018-02-08T00:08:28.725Z,0
2018-02-08T00:09:30.377Z,0
2018-02-08T00:10:32.057Z,0
2018-02-08T00:11:33.707Z,0
2018-02-08T00:12:35.365Z,0
2018-02-08T00:13:37.029Z,0
2018-02-08T00:14:38.681Z,0
2018-02-08T00:15:40.340Z,0
2018-02-08T00:16:41.998Z,0
2018-02-08T00:17:43.642Z,0
2018-02-08T00:18:45.300Z,0
2018-02-08T00:19:46.949Z,0
2018-02-08T00:20:48.609Z,0
2018-02-08T00:21:50.256Z,0
2018-02-08T00:22:51.917Z,0
2018-02-08T00:23:53.565Z,0
2018-02-08T00:24:55.214Z,0
2018-02-08T00:25:56.876Z,0
2018-02-08T00:26:58.519Z,0
2018-02-08T00:28:00.175Z,0
2018-02-08T00:29:01.825Z,0
2018-02-08T00:30:03.485Z,0
2018-02-08T00:31:05.140Z,0
2018-02-08T00:32:06.797Z,0
2018-02-08T00:33:08.457Z,0
2018-02-08T00:34:10.116Z,0
2018-02-08T00:35:11.773Z,0
2018-02-08T00:36:13.420Z,0
2018-02-08T00:37:15.079Z,0
2018-02-08T00:38:16.725Z,0
2018-02-08T00:39:18.370Z,0
2018-02-08T00:40:20.023Z,0
2018-02-08T00:41:21.672Z,0
2018-02-08T00:42:23.322Z,0
2018-02-08T00:43:24.968Z,0
2018-02-08T00:44:26.622Z,0
2018-02-08T00:45:28.272Z,0
2018-02-08T00:46:29.932Z,0
2018-02-08T00:47:31.581Z,0
2018-02-08T00:48:33.246Z,0
2018-02-08T00:49:34.892Z,0
2018-02-08T00:50:36.543Z,0
2018-02-08T00:51:38.192Z,0
2018-02-08T00:52:39.844Z,0
2018-02-08T00:53:41.505Z,0
2018-02-08T00:54:43.151Z,0
2018-02-08T00:55:44.805Z,0
2018-02-08T00:56:46.450Z,0
2018-02-08T00:57:48.093Z,0
2018-02-08T00:58:49.742Z,0
2018-02-08T00:59:51.396Z,0
2018-02-08T01:00:53.042Z,0
2018-02-08T01:01:54.704Z,0
2018-02-08T01:02:56.351Z,0
2018-02-08T01:03:58.000Z,0
2018-02-08T01:04:59.646Z,0
2018-02-08T01:06:01.293Z,0
2018-02-08T01:07:02.943Z,0
2018-02-08T01:08:04.608Z,0
2018-02-08T01:09:06.246Z,0
2018-02-08T01:10:07.904Z,0
2018-02-08T01:11:09.655Z,0
2018-02-08T01:12:11.306Z,0
2018-02-08T01:13:12.949Z,0
2018-02-08T01:14:14.596Z,0
2018-02-08T01:15:16.254Z,0
2018-02-08T01:16:17.897Z,0
2018-02-08T01:17:19.551Z,0
2018-02-08T01:18:21.201Z,0
2018-02-08T01:19:22.853Z,0
2018-02-08T01:20:24.499Z,0
2018-02-08T01:21:26.140Z,0
2018-02-08T01:22:27.793Z,0
2018-02-08T01:23:29.447Z,0
2018-02-08T01:24:31.093Z,0
2018-02-08T01:25:32.737Z,0
2018-02-08T01:26:34.386Z,0
2018-02-08T01:27:36.030Z,0
2018-02-08T01:28:37.674Z,0
2018-02-08T01:29:39.318Z,0
2018-02-08T01:30:40.967Z,0
2018-02-08T01:31:42.614Z,0
2018-02-08T01:32:44.262Z,0
2018-02-08T01:33:45.907Z,0
2018-02-08T01:34:47.555Z,0
2018-02-08T01:35:49.201Z,0
2018-02-08T01:36:50.851Z,0
2018-02-08T01:37:52.503Z,0
2018-02-08T01:38:54.142Z,0
2018-02-08T01:39:55.788Z,0
2018-02-08T01:40:57.437Z,0
2018-02-08T01:41:59.163Z,0
2018-02-08T01:43:00.764Z,0
2018-02-08T01:44:02.405Z,0
2018-02-08T01:45:04.060Z,0
2018-02-08T01:46:05.705Z,0
2018-02-08T01:47:07.388Z,0
2018-02-08T01:48:09.052Z,0
2018-02-08T01:49:10.690Z,0
2018-02-08T01:50:12.338Z,0
2018-02-08T01:51:13.988Z,0
2018-02-08T01:52:15.638Z,0
2018-02-08T01:53:17.290Z,0
2018-02-08T01:54:18.943Z,0
2018-02-08T01:55:20.639Z,0
2018-02-08T01:56:22.287Z,0
2018-02-08T01:57:23.937Z,0
2018-02-08T01:58:25.590Z,0
2018-02-08T01:59:27.310Z,0
2018-02-08T02:00:28.953Z,0
2018-02-08T02:01:30.603Z,0
2018-02-08T02:02:32.240Z,0
2018-02-08T02:03:33.878Z,0
2018-02-08T02:04:35.523Z,0
2018-02-08T02:05:37.169Z,0
2018-02-08T02:06:38.815Z,0
2018-02-08T02:07:40.465Z,0
2018-02-08T02:08:42.126Z,0
2018-02-08T02:09:43.760Z,0
2018-02-08T02:10:45.412Z,0
2018-02-08T02:11:47.068Z,0
2018-02-08T02:12:48.713Z,0
2018-02-08T02:13:50.405Z,0
2018-02-08T02:14:52.007Z,0
2018-02-08T02:15:53.657Z,0
2018-02-08T02:16:55.376Z,0
2018-02-08T02:17:57.020Z,0
2018-02-08T02:18:58.666Z,0
2018-02-08T02:20:00.311Z,0
2018-02-08T02:21:01.956Z,0
2018-02-08T02:22:03.602Z,0
2018-02-08T02:23:05.251Z,0
2018-02-08T02:24:06.898Z,0
2018-02-08T02:25:08.544Z,0
2018-02-08T02:26:10.190Z,0
2018-02-08T02:27:11.828Z,0
2018-02-08T02:28:13.475Z,0
2018-02-08T02:29:15.127Z,0
2018-02-08T02:30:16.772Z,0
2018-02-08T02:31:18.420Z,0
2018-02-08T02:32:20.061Z,0
2018-02-08T02:33:21.708Z,0
2018-02-08T02:34:23.356Z,0
2018-02-08T02:35:25.006Z,0
2018-02-08T02:36:26.643Z,0
2018-02-08T02:37:28.303Z,0
2018-02-08T02:38:29.941Z,0
2018-02-08T02:39:31.592Z,0
2018-02-08T02:40:33.244Z,0
2018-02-08T02:41:34.888Z,0
2018-02-08T02:42:36.539Z,0
2018-02-08T02:43:38.198Z,0
2018-02-08T02:44:39.840Z,0
2018-02-08T02:45:41.486Z,0
2018-02-08T02:46:43.144Z,0
2018-02-08T02:47:44.779Z,0
2018-02-08T02:48:46.429Z,0
2018-02-08T02:49:48.081Z,0
2018-02-08T02:50:49.721Z,0
2018-02-08T02:51:51.371Z,0
2018-02-08T02:52:53.004Z,0
2018-02-08T02:53:54.654Z,0
2018-02-08T02:54:56.296Z,0
2018-02-08T03:01:20.315Z,0
2018-02-08T03:02:21.937Z,0
2018-02-08T03:04:13.753Z,0
2018-02-08T03:05:15.398Z,0
2018-02-08T03:06:17.035Z,0
2018-02-08T03:07:18.689Z,0
2018-02-08T03:08:20.331Z,0
2018-02-08T03:09:21.976Z,0
2018-02-08T03:10:23.621Z,0
2018-02-08T03:11:25.254Z,0
2018-02-08T03:12:26.897Z,0
2018-02-08T03:13:28.552Z,0
2018-02-08T03:14:30.316Z,0
2018-02-08T03:15:31.965Z,0
2018-02-08T03:16:33.615Z,0
2018-02-08T03:17:35.263Z,0
2018-02-08T03:18:36.912Z,0
2018-02-08T03:19:38.608Z,0
2018-02-08T03:20:40.244Z,0
2018-02-08T03:21:41.900Z,0
2018-02-08T03:22:43.541Z,0
2018-02-08T03:23:45.189Z,0
2018-02-08T03:24:46.837Z,0
2018-02-08T03:25:48.491Z,0
2018-02-08T03:26:50.138Z,0
2018-02-08T03:27:51.778Z,0
2018-02-08T03:28:53.419Z,0
2018-02-08T03:29:55.065Z,0
2018-02-08T03:30:56.719Z,0
2018-02-08T03:31:58.357Z,0
2018-02-08T03:33:00.006Z,0
2018-02-08T03:34:01.692Z,0
2018-02-08T03:35:03.329Z,0
2018-02-08T03:36:04.973Z,0
2018-02-08T03:37:06.621Z,0
2018-02-08T03:38:08.268Z,0
2018-02-08T03:39:09.919Z,0
2018-02-08T03:40:11.563Z,0
2018-02-08T03:41:13.217Z,0
2018-02-08T03:42:14.858Z,0
2018-02-08T03:43:16.501Z,0
2018-02-08T03:44:18.148Z,0
2018-02-08T03:45:19.797Z,0
2018-02-08T03:46:21.448Z,0
2018-02-08T03:47:23.166Z,0
2018-02-08T03:48:24.819Z,0
2018-02-08T03:49:26.453Z,0
2018-02-08T03:50:28.095Z,0
2018-02-08T03:51:29.741Z,0
2018-02-08T03:52:31.387Z,0
2018-02-08T03:53:33.071Z,0
2018-02-08T03:54:34.718Z,0
2018-02-08T03:55:36.366Z,0
2018-02-08T03:56:38.013Z,0
2018-02-08T03:57:39.661Z,0
2018-02-08T03:58:41.308Z,0
2018-02-08T03:59:42.962Z,0
2018-02-08T04:00:44.599Z,0
2018-02-08T04:01:46.247Z,0
2018-02-08T04:02:47.891Z,0
2018-02-08T04:03:49.538Z,0
2018-02-08T04:04:51.195Z,0
2018-02-08T04:05:52.833Z,0
2018-02-08T04:06:54.488Z,0
2018-02-08T04:07:56.124Z,0
2018-02-08T04:08:57.773Z,0
2018-02-08T04:09:59.452Z,0
2018-02-08T04:11:01.089Z,0
2018-02-08T04:12:02.737Z,0
2018-02-08T04:13:04.387Z,0
2018-02-08T04:14:06.029Z,0
2018-02-08T04:15:07.684Z,0
2018-02-08T04:16:09.369Z,0
2018-02-08T04:17:11.018Z,0
2018-02-08T04:18:12.666Z,0
2018-02-08T04:19:14.317Z,0
2018-02-08T04:20:15.957Z,0
2018-02-08T04:21:17.605Z,0
2018-02-08T04:22:19.238Z,0
2018-02-08T04:23:20.883Z,0
2018-02-08T04:24:22.530Z,0
2018-02-08T04:25:24.182Z,0
2018-02-08T04:26:25.831Z,0
2018-02-08T04:27:27.468Z,0
2018-02-08T04:28:29.113Z,0
2018-02-08T04:29:30.751Z,0
2018-02-08T04:30:32.407Z,0
2018-02-08T04:31:34.046Z,0
2018-02-08T04:32:35.681Z,0
2018-02-08T04:33:37.327Z,0
2018-02-08T04:34:38.978Z,0
2018-02-08T04:35:40.674Z,0
2018-02-08T04:36:42.275Z,0
2018-02-08T04:37:43.932Z,0
2018-02-08T04:38:45.609Z,0
2018-02-08T04:39:47.269Z,0
2018-02-08T04:40:48.911Z,0
2018-02-08T04:41:50.553Z,0
2018-02-08T04:42:52.188Z,0
2018-02-08T04:43:53.840Z,0
2018-02-08T04:44:55.491Z,0
2018-02-08T04:45:57.145Z,0
2018-02-08T04:46:58.790Z,0
2018-02-08T04:48:00.436Z,0
2018-02-08T04:49:02.084Z,0
2018-02-08T04:50:03.739Z,0
2018-02-08T04:51:05.380Z,0
2018-02-08T04:52:07.036Z,0
2018-02-08T04:53:08.687Z,0
2018-02-08T04:54:10.339Z,0
2018-02-08T04:55:11.989Z,0
2018-02-08T04:56:13.626Z,0
2018-02-08T04:57:15.267Z,0
2018-02-08T04:58:16.927Z,0
2018-02-08T04:59:18.568Z,0
2018-02-08T05:00:20.231Z,0
2018-02-08T05:01:21.874Z,0
2018-02-08T05:02:23.514Z,0
2018-02-08T05:03:25.177Z,0
2018-02-08T05:04:26.837Z,0
2018-02-08T05:05:28.483Z,0
2018-02-08T05:06:30.131Z,0
2018-02-08T05:07:31.773Z,0
2018-02-08T05:08:33.415Z,0
2018-02-08T05:09:35.062Z,0
2018-02-08T05:10:36.723Z,0
2018-02-08T05:11:38.376Z,0
2018-02-08T05:12:40.022Z,0
2018-02-08T05:13:41.655Z,0
2018-02-08T05:14:43.293Z,0
2018-02-08T05:15:44.961Z,0
2018-02-08T05:16:46.605Z,0
2018-02-08T05:17:48.246Z,0
2018-02-08T05:18:49.897Z,0
2018-02-08T05:19:51.541Z,0
2018-02-08T05:20:53.273Z,0
2018-02-08T05:21:54.919Z,0
2018-02-08T05:22:56.555Z,0
2018-02-08T05:23:58.202Z,0
2018-02-08T05:24:59.848Z,0
2018-02-08T05:26:01.493Z,0
2018-02-08T05:27:03.155Z,0
2018-02-08T05:28:04.808Z,0
2018-02-08T05:29:06.467Z,0
2018-02-08T05:30:08.112Z,0
2018-02-08T05:31:09.761Z,0
2018-02-08T05:32:11.407Z,0
2018-02-08T05:33:13.052Z,0
2018-02-08T05:34:14.698Z,0
2018-02-08T05:35:16.341Z,0
2018-02-08T05:36:17.985Z,0
2018-02-08T05:37:19.641Z,0
2018-02-08T05:38:21.288Z,0
2018-02-08T05:39:22.939Z,0
2018-02-08T05:40:24.581Z,0
2018-02-08T05:41:26.228Z,0
2018-02-08T05:42:27.876Z,0
2018-02-08T05:43:29.529Z,0
2018-02-08T05:44:31.177Z,0
2018-02-08T05:45:32.871Z,0
2018-02-08T05:46:34.518Z,0
2018-02-08T05:47:36.171Z,0
2018-02-08T05:48:37.802Z,0
2018-02-08T05:49:39.441Z,0
2018-02-08T05:50:41.090Z,0
2018-02-08T05:51:42.738Z,0
2018-02-08T05:52:44.380Z,0
2018-02-08T05:53:46.024Z,0
2018-02-08T05:54:47.740Z,0
2018-02-08T05:55:49.331Z,0
2018-02-08T05:56:50.994Z,0
2018-02-08T05:57:52.625Z,0
2018-02-08T05:58:54.272Z,0
2018-02-08T05:59:55.915Z,0
2018-02-08T06:00:57.555Z,0
2018-02-08T06:01:59.233Z,0
2018-02-08T06:03:00.880Z,0
2018-02-08T06:04:02.541Z,0
2018-02-08T06:05:04.181Z,0
2018-02-08T06:06:05.821Z,0
2018-02-08T06:07:07.474Z,0
2018-02-08T06:08:09.109Z,0
2018-02-08T06:09:10.751Z,0
2018-02-08T06:10:12.410Z,0
2018-02-08T06:11:14.079Z,0
2018-02-08T06:12:15.764Z,0
2018-02-08T06:13:17.456Z,0
2018-02-08T06:14:19.122Z,0
2018-02-08T06:15:20.733Z,0
2018-02-08T06:16:22.382Z,0
2018-02-08T06:17:24.025Z,0
2018-02-08T06:18:25.671Z,0
2018-02-08T06:19:27.313Z,0
2018-02-08T06:20:28.956Z,0
2018-02-08T06:21:30.597Z,0
2018-02-08T06:22:32.321Z,0
2018-02-08T06:23:33.977Z,0
2018-02-08T06:24:35.630Z,0
2018-02-08T06:25:37.276Z,0
2018-02-08T06:26:38.911Z,0
2018-02-08T06:27:40.616Z,0
2018-02-08T06:28:42.453Z,0
2018-02-08T06:29:44.057Z,0
2018-02-08T06:30:45.709Z,0
2018-02-08T06:31:47.352Z,0
2018-02-08T06:32:49.717Z,0
2018-02-08T06:33:53.718Z,0
2018-02-08T06:34:55.239Z,0
2018-02-08T06:35:56.894Z,0
2018-02-08T06:36:58.567Z,0
2018-02-08T06:38:00.229Z,0
2018-02-08T06:39:01.887Z,0
2018-02-08T06:40:03.533Z,0
2018-02-08T06:41:05.191Z,0
2018-02-08T06:42:06.838Z,0
2018-02-08T06:43:08.482Z,5
2018-02-08T06:44:10.125Z,5
2018-02-08T06:45:11.784Z,5
2018-02-08T06:46:13.425Z,5
2018-02-08T06:47:15.068Z,5
2018-02-08T06:48:16.712Z,5
2018-02-08T06:49:18.364Z,10
2018-02-08T06:50:20.005Z,10
2018-02-08T06:51:21.656Z,10
2018-02-08T06:52:23.302Z,10
2018-02-08T06:53:24.958Z,10
2018-02-08T06:54:26.607Z,15
2018-02-08T06:55:28.290Z,15
2018-02-08T07:00:55.722Z,20
2018-02-08T07:01:57.404Z,25
2018-02-08T07:03:49.267Z,25
2018-02-08T07:04:50.916Z,30
2018-02-08T07:06:42.758Z,30
2018-02-08T07:07:44.404Z,35
2018-02-08T07:08:46.060Z,35
2018-02-08T07:09:47.708Z,35
2018-02-08T07:10:49.349Z,40
2018-02-08T07:11:51.029Z,40
2018-02-08T07:12:52.684Z,45
2018-02-08T07:13:54.332Z,45
2018-02-08T07:14:55.979Z,45
2018-02-08T07:15:57.623Z,50
2018-02-08T07:16:59.280Z,50
2018-02-08T07:18:01.073Z,55
2018-02-08T07:19:02.722Z,55
2018-02-08T07:20:04.368Z,55
2018-02-08T07:21:06.023Z,60
2018-02-08T07:22:07.675Z,60
2018-02-08T07:23:09.326Z,65
2018-02-08T07:24:10.958Z,65
2018-02-08T07:25:12.601Z,70
2018-02-08T07:26:14.273Z,70
2018-02-08T07:27:15.920Z,75
2018-02-08T07:28:17.576Z,75
2018-02-08T07:29:19.230Z,75
2018-02-08T07:30:20.930Z,80
2018-02-08T07:31:22.585Z,80
2018-02-08T07:32:24.234Z,85
2018-02-08T07:33:25.887Z,95
2018-02-08T07:34:27.530Z,100
2018-02-08T07:35:29.223Z,110
2018-02-08T07:36:30.863Z,120
2018-02-08T07:37:32.522Z,125
2018-02-08T07:38:34.188Z,125
2018-02-08T07:39:35.901Z,130
2018-02-08T07:40:37.549Z,135
2018-02-08T07:41:39.203Z,140
2018-02-08T07:42:40.856Z,145
2018-02-08T07:43:42.511Z,145
2018-02-08T07:44:44.162Z,150
2018-02-08T07:45:45.871Z,150
2018-02-08T07:46:47.544Z,155
2018-02-08T07:47:49.186Z,155
2018-02-08T07:48:50.841Z,160
2018-02-08T07:49:52.503Z,165
2018-02-08T07:50:54.151Z,170
2018-02-08T07:51:55.802Z,170
2018-02-08T07:52:57.460Z,175
2018-02-08T07:53:59.108Z,180
2018-02-08T07:55:00.776Z,180
2018-02-08T07:56:02.429Z,185
2018-02-08T07:57:04.086Z,190
2018-02-08T07:58:05.778Z,185
2018-02-08T07:59:07.449Z,195
2018-02-08T08:00:09.097Z,200
2018-02-08T08:01:10.780Z,205
2018-02-08T08:02:12.448Z,205
2018-02-08T08:03:14.111Z,210
2018-02-08T08:04:15.764Z,215
2018-02-08T08:05:17.410Z,220
2018-02-08T08:06:19.062Z,220
2018-02-08T08:07:20.751Z,225
2018-02-08T08:08:22.422Z,225
2018-02-08T08:09:24.071Z,230
2018-02-08T08:10:25.720Z,235
2018-02-08T08:11:27.379Z,235
2018-02-08T08:12:29.045Z,240
2018-02-08T08:13:30.704Z,240
2018-02-08T08:14:33.226Z,245
2018-02-08T08:15:34.899Z,245
2018-02-08T08:16:36.549Z,250
2018-02-08T08:17:38.209Z,250
2018-02-08T08:18:39.872Z,255
2018-02-08T08:19:41.541Z,255
2018-02-08T08:20:43.177Z,260
2018-02-08T08:21:44.841Z,265
2018-02-08T08:22:46.496Z,265
2018-02-08T08:23:48.157Z,270
2018-02-08T08:24:49.815Z,270
2018-02-08T08:25:51.472Z,285
2018-02-08T08:26:53.133Z,275
2018-02-08T08:27:54.797Z,280
2018-02-08T08:28:56.465Z,280
2018-02-08T08:29:58.140Z,285
2018-02-08T08:30:59.786Z,290
2018-02-08T08:32:01.450Z,260
2018-02-08T08:33:03.113Z,290
2018-02-08T08:34:04.768Z,295
2018-02-08T08:35:06.426Z,295
2018-02-08T08:36:08.085Z,300
2018-02-08T08:37:09.746Z,300
2018-02-08T08:38:11.403Z,305
2018-02-08T08:39:13.060Z,310
2018-02-08T08:40:14.712Z,310
2018-02-08T08:41:16.373Z,315
2018-02-08T08:42:18.031Z,315
2018-02-08T08:43:19.697Z,320
2018-02-08T08:44:21.361Z,325
2018-02-08T08:45:23.070Z,325
2018-02-08T08:46:24.742Z,325
2018-02-08T08:47:26.398Z,330
2018-02-08T08:48:28.056Z,330
2018-02-08T08:49:29.711Z,335
2018-02-08T08:50:31.419Z,335
2018-02-08T08:51:33.032Z,340
2018-02-08T08:52:34.692Z,340
2018-02-08T08:53:36.349Z,345
2018-02-08T08:54:38.012Z,345
2018-02-08T08:55:39.699Z,350
2018-02-08T08:56:41.353Z,350
2018-02-08T08:57:43.012Z,355
2018-02-08T08:58:44.667Z,355
2018-02-08T08:59:46.346Z,360
2018-02-08T09:00:47.993Z,360
2018-02-08T09:01:49.654Z,365
2018-02-08T09:02:51.311Z,365
2018-02-08T09:03:52.980Z,370
2018-02-08T09:04:54.636Z,370
2018-02-08T09:05:56.299Z,370
2018-02-08T09:06:57.957Z,370
2018-02-08T09:07:59.629Z,370
2018-02-08T09:09:01.350Z,370
2018-02-08T09:10:02.999Z,365
2018-02-08T09:11:04.654Z,370
2018-02-08T09:12:06.316Z,370
2018-02-08T09:13:07.975Z,375
2018-02-08T09:14:09.632Z,370
2018-02-08T09:15:11.300Z,370
2018-02-08T09:16:12.961Z,370
2018-02-08T09:17:14.611Z,365
2018-02-08T09:18:16.268Z,370
2018-02-08T09:19:17.927Z,375
2018-02-08T09:20:19.579Z,370
2018-02-08T09:21:21.246Z,370
2018-02-08T09:22:22.917Z,380
2018-02-08T09:23:24.577Z,375
2018-02-08T09:24:26.243Z,380
2018-02-08T09:25:27.897Z,380
2018-02-08T09:26:29.584Z,385
2018-02-08T09:27:31.240Z,390
2018-02-08T09:28:32.898Z,400
2018-02-08T09:29:34.609Z,400
2018-02-08T09:30:36.260Z,400
2018-02-08T09:31:38.002Z,410
2018-02-08T09:32:39.666Z,410
2018-02-08T09:33:41.335Z,410
2018-02-08T09:34:42.984Z,415
2018-02-08T09:35:44.650Z,420
2018-02-08T09:36:46.308Z,415
2018-02-08T09:37:47.965Z,415
2018-02-08T09:38:49.635Z,415
2018-02-08T09:39:51.300Z,415
2018-02-08T09:40:52.952Z,415
2018-02-08T09:41:54.618Z,415
2018-02-08T09:42:56.275Z,420
2018-02-08T09:43:57.929Z,415
2018-02-08T09:44:59.589Z,415
2018-02-08T09:46:01.248Z,410
2018-02-08T09:47:02.906Z,410
2018-02-08T09:48:04.571Z,400
2018-02-08T09:49:06.243Z,410
2018-02-08T09:50:07.899Z,425
2018-02-08T09:51:09.564Z,440
2018-02-08T09:52:11.222Z,445
2018-02-08T09:53:12.929Z,450
2018-02-08T09:54:14.577Z,455
2018-02-08T09:55:16.258Z,465
2018-02-08T09:56:17.913Z,475
2018-02-08T09:57:19.572Z,490
2018-02-08T09:58:21.258Z,490
2018-02-08T09:59:22.945Z,495
2018-02-08T10:00:24.609Z,500
2018-02-08T10:01:26.280Z,490
2018-02-08T10:02:27.934Z,510
2018-02-08T10:03:29.598Z,515
2018-02-08T10:04:31.264Z,525
2018-02-08T10:05:32.923Z,525
2018-02-08T10:06:34.589Z,530
2018-02-08T10:07:36.247Z,535
2018-02-08T10:08:37.910Z,540
2018-02-08T10:09:39.600Z,530
2018-02-08T10:10:41.264Z,540
2018-02-08T10:11:42.918Z,550
2018-02-08T10:12:44.578Z,560
2018-02-08T10:13:46.246Z,575
2018-02-08T10:14:47.903Z,585
2018-02-08T10:15:49.599Z,595
2018-02-08T10:16:51.256Z,595
2018-02-08T10:17:52.912Z,525
2018-02-08T10:18:54.581Z,610
2018-02-08T10:19:56.245Z,620
2018-02-08T10:20:57.903Z,630
2018-02-08T10:21:59.596Z,635
2018-02-08T10:23:01.226Z,655
2018-02-08T10:24:02.897Z,675
2018-02-08T10:25:04.565Z,700
2018-02-08T10:26:06.226Z,715
2018-02-08T10:27:07.891Z,735
2018-02-08T10:28:09.549Z,750
2018-02-08T10:29:11.204Z,785
2018-02-08T10:30:12.869Z,840
2018-02-08T10:31:14.530Z,895
2018-02-08T10:32:16.187Z,950
2018-02-08T10:33:17.851Z,1030
2018-02-08T10:34:19.519Z,1120
2018-02-08T10:35:21.190Z,1220
2018-02-08T10:36:22.860Z,1310
2018-02-08T10:37:24.518Z,1325
2018-02-08T10:38:26.185Z,1340
2018-02-08T10:39:27.880Z,1350
2018-02-08T10:40:29.534Z,1240
2018-02-08T10:41:31.199Z,1270
2018-02-08T10:42:32.864Z,1240
2018-02-08T10:43:34.528Z,1155
2018-02-08T10:44:36.194Z,1100
2018-02-08T10:45:37.866Z,1035
2018-02-08T10:46:39.563Z,960
2018-02-08T10:47:41.226Z,895
2018-02-08T10:48:42.886Z,855
2018-02-08T10:49:44.555Z,820
2018-02-08T10:50:46.213Z,775
2018-02-08T10:51:47.881Z,745
2018-02-08T10:52:49.549Z,720
2018-02-08T10:53:51.205Z,705
2018-02-08T10:54:52.876Z,685
2018-02-08T11:01:41.273Z,650
2018-02-08T11:02:42.898Z,635
2018-02-08T11:03:44.558Z,630
2018-02-08T11:04:46.222Z,610
2018-02-08T11:05:47.892Z,590
2018-02-08T11:06:49.550Z,585
2018-02-08T11:07:51.210Z,590
2018-02-08T11:08:52.884Z,585
2018-02-08T11:09:54.548Z,595
2018-02-08T11:10:56.212Z,610
2018-02-08T11:11:57.881Z,610
2018-02-08T11:12:59.578Z,595
2018-02-08T11:14:01.213Z,580
2018-02-08T11:15:02.876Z,590
2018-02-08T11:16:04.543Z,575
2018-02-08T11:17:06.212Z,575
2018-02-08T11:18:07.869Z,575
2018-02-08T11:19:09.551Z,585
2018-02-08T11:20:11.212Z,610
2018-02-08T11:21:12.865Z,630
2018-02-08T11:22:14.535Z,645
2018-02-08T11:23:16.200Z,650
2018-02-08T11:24:17.860Z,640
2018-02-08T11:25:19.513Z,640
2018-02-08T11:26:21.174Z,660
2018-02-08T11:27:22.834Z,670
2018-02-08T11:28:24.493Z,685
2018-02-08T11:29:26.296Z,690
2018-02-08T11:30:27.962Z,690
2018-02-08T11:31:29.626Z,695
2018-02-08T11:32:31.282Z,690
2018-02-08T11:33:32.936Z,670
2018-02-08T11:34:34.643Z,645
2018-02-08T11:35:36.301Z,660
2018-02-08T11:36:37.990Z,660
2018-02-08T11:37:39.642Z,670
2018-02-08T11:38:41.302Z,660
2018-02-08T11:39:42.962Z,645
2018-02-08T11:40:44.667Z,645
2018-02-08T11:41:46.334Z,625
2018-02-08T11:42:47.995Z,625
2018-02-08T11:43:49.660Z,615
2018-02-08T11:44:51.330Z,565
2018-02-08T11:45:52.981Z,570
2018-02-08T11:46:54.644Z,605
2018-02-08T11:47:56.350Z,640
2018-02-08T11:48:58.036Z,615
2018-02-08T11:49:59.711Z,595
2018-02-08T11:51:01.375Z,590
2018-02-08T11:52:03.049Z,585
2018-02-08T11:53:04.740Z,555
2018-02-08T11:54:06.402Z,600
2018-02-08T11:55:08.105Z,600
2018-02-08T11:56:09.724Z,560
2018-02-08T11:57:11.412Z,590
2018-02-08T11:58:13.075Z,590
2018-02-08T11:59:14.916Z,575
2018-02-08T12:00:16.573Z,550
2018-02-08T12:01:18.229Z,580
2018-02-08T12:02:19.897Z,590
2018-02-08T12:03:21.573Z,585
2018-02-08T12:04:23.254Z,595
2018-02-08T12:05:24.906Z,590
2018-02-08T12:06:26.563Z,565
2018-02-08T12:07:28.247Z,560
2018-02-08T12:08:29.902Z,550
2018-02-08T12:09:31.647Z,555
2018-02-08T12:10:33.312Z,540
2018-02-08T12:11:35.005Z,530
2018-02-08T12:12:36.799Z,535
2018-02-08T12:13:38.465Z,555
2018-02-08T12:14:40.152Z,565
2018-02-08T12:15:41.839Z,575
2018-02-08T12:16:43.669Z,590
2018-02-08T12:17:45.355Z,590
2018-02-08T12:18:47.009Z,595
2018-02-08T12:19:48.670Z,605
2018-02-08T12:20:50.584Z,620
2018-02-08T12:21:52.240Z,635
2018-02-08T12:22:53.889Z,640
2018-02-08T12:23:55.558Z,630
2018-02-08T12:24:57.217Z,630
2018-02-08T12:25:59.060Z,625
2018-02-08T12:27:00.707Z,620
2018-02-08T12:28:02.362Z,620
2018-02-08T12:29:04.031Z,615
2018-02-08T12:30:05.834Z,600
2018-02-08T12:31:07.717Z,595
2018-02-08T12:32:09.515Z,575
2018-02-08T12:33:11.181Z,575
2018-02-08T12:34:12.854Z,565
2018-02-08T12:35:14.519Z,550
2018-02-08T12:36:16.181Z,545
2018-02-08T12:37:17.846Z,530
2018-02-08T12:38:19.498Z,490
2018-02-08T12:39:21.179Z,425
2018-02-08T12:40:22.836Z,395
2018-02-08T12:41:24.584Z,405
2018-02-08T12:42:26.247Z,445
2018-02-08T12:43:27.910Z,440
2018-02-08T12:44:29.574Z,415
2018-02-08T12:45:31.242Z,395
2018-02-08T12:46:32.926Z,390
2018-02-08T12:47:34.587Z,390
2018-02-08T12:48:36.250Z,405
2018-02-08T12:49:37.954Z,450
2018-02-08T12:50:39.656Z,495
2018-02-08T12:51:41.287Z,535
2018-02-08T12:52:42.938Z,545
2018-02-08T12:53:44.627Z,540
2018-02-08T12:54:46.281Z,530
2018-02-08T12:55:47.958Z,450
2018-02-08T12:56:49.627Z,400
2018-02-08T12:57:51.300Z,340
2018-02-08T12:58:52.960Z,355
2018-02-08T12:59:54.904Z,370
2018-02-08T13:00:56.563Z,405
2018-02-08T13:01:58.222Z,415
2018-02-08T13:02:59.883Z,500
2018-02-08T13:04:01.574Z,520
2018-02-08T13:05:03.223Z,525
2018-02-08T13:06:04.883Z,540
2018-02-08T13:07:06.625Z,530
2018-02-08T13:08:08.344Z,525
2018-02-08T13:09:10.011Z,530
2018-02-08T13:10:11.679Z,540
2018-02-08T13:11:13.336Z,520
2018-02-08T13:12:15.002Z,500
2018-02-08T13:13:16.654Z,480
2018-02-08T13:14:18.324Z,505
2018-02-08T13:15:20.174Z,525
2018-02-08T13:16:21.838Z,545
2018-02-08T13:17:23.490Z,560
2018-02-08T13:18:25.161Z,560
2018-02-08T13:19:26.814Z,560
2018-02-08T13:20:28.467Z,565
2018-02-08T13:21:30.136Z,555
2018-02-08T13:22:31.870Z,560
2018-02-08T13:23:33.539Z,555
2018-02-08T13:24:35.205Z,540
2018-02-08T13:25:37.353Z,525
2018-02-08T13:26:39.373Z,510
2018-02-08T13:27:40.992Z,520
2018-02-08T13:28:42.667Z,490
2018-02-08T13:29:44.336Z,470
2018-02-08T13:30:45.991Z,470
2018-02-08T13:31:47.656Z,480
2018-02-08T13:32:49.318Z,475
2018-02-08T13:33:50.986Z,485
2018-02-08T13:34:52.658Z,505
2018-02-08T13:35:54.319Z,530
2018-02-08T13:36:55.975Z,540
2018-02-08T13:37:57.919Z,535
2018-02-08T13:38:59.565Z,525
2018-02-08T13:40:01.228Z,510
2018-02-08T13:41:02.892Z,505
2018-02-08T13:42:04.543Z,480
2018-02-08T13:43:06.203Z,455
2018-02-08T13:44:07.873Z,450
2018-02-08T13:45:09.537Z,455
2018-02-08T13:46:11.196Z,500
2018-02-08T13:47:12.929Z,525
2018-02-08T13:48:14.594Z,505
2018-02-08T13:49:16.263Z,450
2018-02-08T13:50:17.919Z,430
2018-02-08T13:51:19.578Z,425
2018-02-08T13:52:21.240Z,420
2018-02-08T13:53:22.924Z,420
2018-02-08T13:54:24.819Z,455
2018-02-08T13:55:26.444Z,455
2018-02-08T13:56:28.107Z,455
2018-02-08T13:57:29.767Z,430
2018-02-08T13:58:31.427Z,410
2018-02-08T13:59:33.090Z,400
2018-02-08T14:00:34.757Z,385
2018-02-08T14:01:36.420Z,380
2018-02-08T14:02:38.075Z,380
2018-02-08T14:03:39.726Z,375
2018-02-08T14:04:41.387Z,365
2018-02-08T14:05:43.043Z,370
2018-02-08T14:06:44.700Z,380
2018-02-08T14:07:46.357Z,380
2018-02-08T14:08:48.020Z,420
2018-02-08T14:09:49.679Z,430
2018-02-08T14:10:56.211Z,385
2018-02-08T14:11:57.433Z,370
2018-02-08T14:13:01.052Z,405
2018-02-08T14:14:04.164Z,385
2018-02-08T14:17:47.225Z,345
2018-02-08T14:19:35.754Z,330
2018-02-08T14:20:37.876Z,310
2018-02-08T14:21:39.977Z,305
2018-02-08T14:22:41.946Z,300
2018-02-08T14:23:43.931Z,300
2018-02-08T14:24:45.832Z,295
2018-02-08T14:25:48.034Z,295
2018-02-08T14:26:50.190Z,300
2018-02-08T14:27:52.387Z,300
2018-02-08T14:28:54.458Z,295
2018-02-08T14:29:56.793Z,295
2018-02-08T14:30:58.772Z,295
2018-02-08T14:32:00.631Z,285
2018-02-08T14:33:02.632Z,285
2018-02-08T14:34:04.314Z,285
2018-02-08T14:35:06.107Z,285
2018-02-08T14:36:08.054Z,280
2018-02-08T14:37:09.812Z,280
2018-02-08T14:38:11.716Z,285
2018-02-08T14:39:13.448Z,285
2018-02-08T14:40:15.469Z,285
2018-02-08T14:41:17.297Z,285
2018-02-08T14:42:19.924Z,280
2018-02-08T14:43:21.453Z,280
2018-02-08T14:44:23.445Z,280
2018-02-08T14:45:25.187Z,280
2018-02-08T14:46:26.943Z,275
2018-02-08T14:47:28.929Z,270
2018-02-08T14:48:30.656Z,260
2018-02-08T14:49:33.149Z,250
2018-02-08T14:50:36.062Z,250
2018-02-08T14:51:37.961Z,245
2018-02-08T14:52:39.745Z,240
2018-02-08T14:53:41.524Z,240
2018-02-08T14:54:43.188Z,235
2018-02-08T15:01:19.684Z,210
2018-02-08T15:02:21.359Z,210
2018-02-08T15:03:23.008Z,205
2018-02-08T15:04:24.912Z,200